sensor_id;sensor_type;location;lat;lon;timestamp;temperature;humidity
42097;DHT22;27754;45.414;11.084;2023-01-23T00:01:23;4.70;74.80
42097;DHT22;27754;45.414;11.084;2023-01-23T00:03:53;4.70;75.10
42097;DHT22;27754;45.414;11.084;2023-01-23T00:06:21;4.80;74.90
42097;DHT22;27754;45.414;11.084;2023-01-23T00:08:48;4.80;74.70
42097;DHT22;27754;45.414;11.084;2023-01-23T00:11:26;4.90;74.10
42097;DHT22;27754;45.414;11.084;2023-01-23T00:13:56;4.90;73.40
42097;DHT22;27754;45.414;11.084;2023-01-23T00:16:24;4.90;74.10
42097;DHT22;27754;45.414;11.084;2023-01-23T00:18:52;5.00;73.20
42097;DHT22;27754;45.414;11.084;2023-01-23T00:21:21;5.00;72.70
42097;DHT22;27754;45.414;11.084;2023-01-23T00:23:53;5.10;72.70
42097;DHT22;27754;45.414;11.084;2023-01-23T00:26:25;5.10;72.80
42097;DHT22;27754;45.414;11.084;2023-01-23T00:28:53;5.10;72.60
42097;DHT22;27754;45.414;11.084;2023-01-23T00:31:25;5.10;72.40
42097;DHT22;27754;45.414;11.084;2023-01-23T00:33:55;5.10;72.30
42097;DHT22;27754;45.414;11.084;2023-01-23T00:36:23;5.20;72.00
42097;DHT22;27754;45.414;11.084;2023-01-23T00:38:50;5.30;71.60
42097;DHT22;27754;45.414;11.084;2023-01-23T00:41:17;5.20;72.00
42097;DHT22;27754;45.414;11.084;2023-01-23T00:43:44;5.20;72.40
42097;DHT22;27754;45.414;11.084;2023-01-23T00:46:12;5.30;72.20
42097;DHT22;27754;45.414;11.084;2023-01-23T00:48:39;5.30;71.90
42097;DHT22;27754;45.414;11.084;2023-01-23T00:51:06;5.40;70.80
42097;DHT22;27754;45.414;11.084;2023-01-23T00:53:33;5.40;71.00
42097;DHT22;27754;45.414;11.084;2023-01-23T00:56:00;5.40;71.20
42097;DHT22;27754;45.414;11.084;2023-01-23T00:58:27;5.40;71.10
42097;DHT22;27754;45.414;11.084;2023-01-23T01:00:54;5.40;71.10
42097;DHT22;27754;45.414;11.084;2023-01-23T01:03:21;5.40;71.50
42097;DHT22;27754;45.414;11.084;2023-01-23T01:05:51;5.30;73.40
42097;DHT22;27754;45.414;11.084;2023-01-23T01:08:18;5.30;74.00
42097;DHT22;27754;45.414;11.084;2023-01-23T01:10:45;5.20;73.10
42097;DHT22;27754;45.414;11.084;2023-01-23T01:13:12;5.30;73.20
42097;DHT22;27754;45.414;11.084;2023-01-23T01:15:39;5.40;72.00
42097;DHT22;27754;45.414;11.084;2023-01-23T01:18:08;5.40;71.60
42097;DHT22;27754;45.414;11.084;2023-01-23T01:20:34;5.40;71.50
42097;DHT22;27754;45.414;11.084;2023-01-23T01:23:01;5.40;71.40
42097;DHT22;27754;45.414;11.084;2023-01-23T01:25:29;5.40;70.90
42097;DHT22;27754;45.414;11.084;2023-01-23T01:27:57;5.40;70.70
42097;DHT22;27754;45.414;11.084;2023-01-23T01:30:24;5.50;70.50
42097;DHT22;27754;45.414;11.084;2023-01-23T01:32:53;5.50;69.90
42097;DHT22;27754;45.414;11.084;2023-01-23T01:35:20;5.60;69.90
42097;DHT22;27754;45.414;11.084;2023-01-23T01:37:47;5.60;69.70
42097;DHT22;27754;45.414;11.084;2023-01-23T01:40:21;5.60;70.00
42097;DHT22;27754;45.414;11.084;2023-01-23T01:42:58;5.60;69.90
42097;DHT22;27754;45.414;11.084;2023-01-23T01:48:37;5.60;70.20
42097;DHT22;27754;45.414;11.084;2023-01-23T01:51:18;5.50;70.80
42097;DHT22;27754;45.414;11.084;2023-01-23T01:56:48;5.50;71.60
42097;DHT22;27754;45.414;11.084;2023-01-23T01:59:18;5.50;71.50
42097;DHT22;27754;45.414;11.084;2023-01-23T02:01:49;5.40;71.70
42097;DHT22;27754;45.414;11.084;2023-01-23T02:04:16;5.50;71.50
42097;DHT22;27754;45.414;11.084;2023-01-23T02:06:43;5.50;71.80
42097;DHT22;27754;45.414;11.084;2023-01-23T02:09:29;5.50;71.80
42097;DHT22;27754;45.414;11.084;2023-01-23T02:12:00;5.50;72.30
42097;DHT22;27754;45.414;11.084;2023-01-23T02:14:27;5.50;72.40
42097;DHT22;27754;45.414;11.084;2023-01-23T02:16:54;5.50;72.40
42097;DHT22;27754;45.414;11.084;2023-01-23T02:19:34;5.50;71.70
42097;DHT22;27754;45.414;11.084;2023-01-23T02:22:25;5.50;71.60
42097;DHT22;27754;45.414;11.084;2023-01-23T02:25:07;5.60;71.80
42097;DHT22;27754;45.414;11.084;2023-01-23T02:27:37;5.60;71.90
42097;DHT22;27754;45.414;11.084;2023-01-23T02:30:04;5.50;72.60
42097;DHT22;27754;45.414;11.084;2023-01-23T02:32:33;5.60;72.50
42097;DHT22;27754;45.414;11.084;2023-01-23T02:35:09;5.50;72.50
42097;DHT22;27754;45.414;11.084;2023-01-23T02:37:37;5.50;72.90
42097;DHT22;27754;45.414;11.084;2023-01-23T02:40:10;5.50;73.60
42097;DHT22;27754;45.414;11.084;2023-01-23T02:42:40;5.50;74.20
42097;DHT22;27754;45.414;11.084;2023-01-23T02:45:11;5.40;74.20
42097;DHT22;27754;45.414;11.084;2023-01-23T02:47:38;5.50;74.50
42097;DHT22;27754;45.414;11.084;2023-01-23T02:50:05;5.50;74.70
42097;DHT22;27754;45.414;11.084;2023-01-23T02:52:32;5.50;75.00
42097;DHT22;27754;45.414;11.084;2023-01-23T02:54:59;5.60;75.40
42097;DHT22;27754;45.414;11.084;2023-01-23T02:57:26;5.60;76.20
42097;DHT22;27754;45.414;11.084;2023-01-23T02:59:53;5.60;75.70
42097;DHT22;27754;45.414;11.084;2023-01-23T03:02:39;5.60;75.70
42097;DHT22;27754;45.414;11.084;2023-01-23T03:05:09;5.60;75.60
42097;DHT22;27754;45.414;11.084;2023-01-23T03:07:36;5.60;75.10
42097;DHT22;27754;45.414;11.084;2023-01-23T03:10:04;5.60;74.70
42097;DHT22;27754;45.414;11.084;2023-01-23T03:12:33;5.60;74.90
42097;DHT22;27754;45.414;11.084;2023-01-23T03:14:59;5.60;75.20
42097;DHT22;27754;45.414;11.084;2023-01-23T03:17:27;5.60;74.80
42097;DHT22;27754;45.414;11.084;2023-01-23T03:19:54;5.90;73.10
42097;DHT22;27754;45.414;11.084;2023-01-23T03:22:24;5.80;73.40
42097;DHT22;27754;45.414;11.084;2023-01-23T03:24:52;5.80;73.00
42097;DHT22;27754;45.414;11.084;2023-01-23T03:27:19;5.90;73.10
42097;DHT22;27754;45.414;11.084;2023-01-23T03:29:50;5.90;73.40
42097;DHT22;27754;45.414;11.084;2023-01-23T03:32:36;5.90;73.60
42097;DHT22;27754;45.414;11.084;2023-01-23T03:35:05;5.90;73.90
42097;DHT22;27754;45.414;11.084;2023-01-23T03:37:32;5.80;74.50
42097;DHT22;27754;45.414;11.084;2023-01-23T03:40:01;5.80;74.70
42097;DHT22;27754;45.414;11.084;2023-01-23T03:42:47;5.80;74.80
42097;DHT22;27754;45.414;11.084;2023-01-23T03:45:21;6.30;71.50
42097;DHT22;27754;45.414;11.084;2023-01-23T03:47:49;6.50;70.80
42097;DHT22;27754;45.414;11.084;2023-01-23T03:50:16;6.60;71.10
42097;DHT22;27754;45.414;11.084;2023-01-23T03:52:44;6.60;71.70
42097;DHT22;27754;45.414;11.084;2023-01-23T03:55:11;6.70;72.30
42097;DHT22;27754;45.414;11.084;2023-01-23T03:57:39;6.60;73.00
42097;DHT22;27754;45.414;11.084;2023-01-23T04:00:14;6.40;73.60
42097;DHT22;27754;45.414;11.084;2023-01-23T04:02:51;6.40;73.90
42097;DHT22;27754;45.414;11.084;2023-01-23T04:05:19;6.30;73.70
42097;DHT22;27754;45.414;11.084;2023-01-23T04:07:46;6.20;73.70
42097;DHT22;27754;45.414;11.084;2023-01-23T04:10:14;6.20;73.40
42097;DHT22;27754;45.414;11.084;2023-01-23T04:12:45;6.10;74.20
42097;DHT22;27754;45.414;11.084;2023-01-23T04:15:12;6.10;74.30
42097;DHT22;27754;45.414;11.084;2023-01-23T04:17:39;6.20;73.70
42097;DHT22;27754;45.414;11.084;2023-01-23T04:20:09;6.10;73.90
42097;DHT22;27754;45.414;11.084;2023-01-23T04:22:36;6.10;74.60
42097;DHT22;27754;45.414;11.084;2023-01-23T04:25:05;6.10;74.60
42097;DHT22;27754;45.414;11.084;2023-01-23T04:27:32;6.10;74.70
42097;DHT22;27754;45.414;11.084;2023-01-23T04:30:00;6.10;74.60
42097;DHT22;27754;45.414;11.084;2023-01-23T04:32:27;6.10;74.40
42097;DHT22;27754;45.414;11.084;2023-01-23T04:34:55;6.10;74.20
42097;DHT22;27754;45.414;11.084;2023-01-23T04:37:24;6.10;73.80
42097;DHT22;27754;45.414;11.084;2023-01-23T04:39:51;6.10;74.20
42097;DHT22;27754;45.414;11.084;2023-01-23T04:42:18;6.10;74.60
42097;DHT22;27754;45.414;11.084;2023-01-23T04:45:03;6.20;73.50
42097;DHT22;27754;45.414;11.084;2023-01-23T04:47:43;6.50;72.00
42097;DHT22;27754;45.414;11.084;2023-01-23T04:50:12;6.70;72.00
42097;DHT22;27754;45.414;11.084;2023-01-23T04:52:43;6.80;71.00
42097;DHT22;27754;45.414;11.084;2023-01-23T04:55:10;7.10;70.90
42097;DHT22;27754;45.414;11.084;2023-01-23T04:57:37;7.10;71.80
42097;DHT22;27754;45.414;11.084;2023-01-23T05:00:23;7.00;72.50
42097;DHT22;27754;45.414;11.084;2023-01-23T05:02:50;6.90;73.50
42097;DHT22;27754;45.414;11.084;2023-01-23T05:05:17;6.90;73.90
42097;DHT22;27754;45.414;11.084;2023-01-23T05:07:50;6.80;74.60
42097;DHT22;27754;45.414;11.084;2023-01-23T05:10:17;7.00;75.90
42097;DHT22;27754;45.414;11.084;2023-01-23T05:12:46;7.20;75.20
42097;DHT22;27754;45.414;11.084;2023-01-23T05:15:13;7.30;75.60
42097;DHT22;27754;45.414;11.084;2023-01-23T05:17:43;7.30;75.50
42097;DHT22;27754;45.414;11.084;2023-01-23T05:20:10;7.40;76.50
42097;DHT22;27754;45.414;11.084;2023-01-23T05:22:39;7.30;77.00
42097;DHT22;27754;45.414;11.084;2023-01-23T05:25:25;7.30;76.80
42097;DHT22;27754;45.414;11.084;2023-01-23T05:27:54;7.30;77.30
42097;DHT22;27754;45.414;11.084;2023-01-23T05:30:25;7.40;77.20
42097;DHT22;27754;45.414;11.084;2023-01-23T05:33:01;7.40;77.10
42097;DHT22;27754;45.414;11.084;2023-01-23T05:35:28;7.40;77.40
42097;DHT22;27754;45.414;11.084;2023-01-23T05:37:55;7.40;78.10
42097;DHT22;27754;45.414;11.084;2023-01-23T05:40:23;7.30;78.50
42097;DHT22;27754;45.414;11.084;2023-01-23T05:43:16;7.30;78.90
42097;DHT22;27754;45.414;11.084;2023-01-23T05:46:22;7.20;79.40
42097;DHT22;27754;45.414;11.084;2023-01-23T05:48:51;7.20;79.80
42097;DHT22;27754;45.414;11.084;2023-01-23T05:51:20;7.20;79.70
42097;DHT22;27754;45.414;11.084;2023-01-23T05:53:49;7.10;80.20
42097;DHT22;27754;45.414;11.084;2023-01-23T05:56:17;7.10;80.30
42097;DHT22;27754;45.414;11.084;2023-01-23T05:59:19;7.20;80.40
42097;DHT22;27754;45.414;11.084;2023-01-23T06:01:59;7.10;80.80
42097;DHT22;27754;45.414;11.084;2023-01-23T06:04:38;7.30;80.50
42097;DHT22;27754;45.414;11.084;2023-01-23T06:07:21;7.20;80.60
42097;DHT22;27754;45.414;11.084;2023-01-23T06:09:51;7.20;80.90
42097;DHT22;27754;45.414;11.084;2023-01-23T06:12:18;7.20;81.50
42097;DHT22;27754;45.414;11.084;2023-01-23T06:14:46;7.20;82.00
42097;DHT22;27754;45.414;11.084;2023-01-23T06:17:14;7.20;81.50
42097;DHT22;27754;45.414;11.084;2023-01-23T06:19:41;7.20;81.60
42097;DHT22;27754;45.414;11.084;2023-01-23T06:22:09;7.20;81.50
42097;DHT22;27754;45.414;11.084;2023-01-23T06:24:57;7.20;82.10
42097;DHT22;27754;45.414;11.084;2023-01-23T06:27:25;7.40;81.00
42097;DHT22;27754;45.414;11.084;2023-01-23T06:29:51;7.30;81.30
42097;DHT22;27754;45.414;11.084;2023-01-23T06:32:19;7.30;81.20
42097;DHT22;27754;45.414;11.084;2023-01-23T06:34:47;7.40;81.70
42097;DHT22;27754;45.414;11.084;2023-01-23T06:37:14;7.30;81.70
42097;DHT22;27754;45.414;11.084;2023-01-23T06:39:43;7.40;81.60
42097;DHT22;27754;45.414;11.084;2023-01-23T06:42:11;7.40;81.60
42097;DHT22;27754;45.414;11.084;2023-01-23T06:44:43;7.40;81.50
42097;DHT22;27754;45.414;11.084;2023-01-23T06:47:12;7.40;80.90
42097;DHT22;27754;45.414;11.084;2023-01-23T06:49:41;7.40;81.10
42097;DHT22;27754;45.414;11.084;2023-01-23T06:52:08;7.30;83.00
42097;DHT22;27754;45.414;11.084;2023-01-23T06:54:36;7.10;83.90
42097;DHT22;27754;45.414;11.084;2023-01-23T06:57:04;6.90;84.30
42097;DHT22;27754;45.414;11.084;2023-01-23T06:59:32;6.70;84.60
42097;DHT22;27754;45.414;11.084;2023-01-23T07:02:02;6.60;84.90
42097;DHT22;27754;45.414;11.084;2023-01-23T07:04:37;6.50;85.10
42097;DHT22;27754;45.414;11.084;2023-01-23T07:07:04;6.40;85.50
42097;DHT22;27754;45.414;11.084;2023-01-23T07:09:32;6.30;85.60
42097;DHT22;27754;45.414;11.084;2023-01-23T07:12:05;6.20;85.60
42097;DHT22;27754;45.414;11.084;2023-01-23T07:14:32;6.30;86.00
42097;DHT22;27754;45.414;11.084;2023-01-23T07:17:00;6.30;86.20
42097;DHT22;27754;45.414;11.084;2023-01-23T07:19:28;6.20;86.70
42097;DHT22;27754;45.414;11.084;2023-01-23T07:21:57;6.20;86.60
42097;DHT22;27754;45.414;11.084;2023-01-23T07:24:26;6.20;86.40
42097;DHT22;27754;45.414;11.084;2023-01-23T07:26:55;6.10;86.40
42097;DHT22;27754;45.414;11.084;2023-01-23T07:29:22;6.10;86.50
42097;DHT22;27754;45.414;11.084;2023-01-23T07:31:49;6.10;86.50
42097;DHT22;27754;45.414;11.084;2023-01-23T07:34:16;6.10;86.20
42097;DHT22;27754;45.414;11.084;2023-01-23T07:36:43;6.00;86.00
42097;DHT22;27754;45.414;11.084;2023-01-23T07:39:10;6.10;85.90
42097;DHT22;27754;45.414;11.084;2023-01-23T07:41:36;6.10;85.90
42097;DHT22;27754;45.414;11.084;2023-01-23T07:44:06;6.10;85.70
42097;DHT22;27754;45.414;11.084;2023-01-23T07:46:33;6.20;85.50
42097;DHT22;27754;45.414;11.084;2023-01-23T07:49:00;6.30;85.60
42097;DHT22;27754;45.414;11.084;2023-01-23T07:51:27;6.40;84.90
42097;DHT22;27754;45.414;11.084;2023-01-23T07:53:54;6.40;85.00
42097;DHT22;27754;45.414;11.084;2023-01-23T07:56:21;6.40;85.00
42097;DHT22;27754;45.414;11.084;2023-01-23T07:58:49;6.40;84.80
42097;DHT22;27754;45.414;11.084;2023-01-23T08:01:16;6.50;84.70
42097;DHT22;27754;45.414;11.084;2023-01-23T08:03:45;6.50;84.00
42097;DHT22;27754;45.414;11.084;2023-01-23T08:06:15;6.50;85.50
42097;DHT22;27754;45.414;11.084;2023-01-23T08:08:42;6.50;85.80
42097;DHT22;27754;45.414;11.084;2023-01-23T08:11:09;6.60;86.20
42097;DHT22;27754;45.414;11.084;2023-01-23T08:13:38;6.50;86.60
42097;DHT22;27754;45.414;11.084;2023-01-23T08:16:06;6.60;87.10
42097;DHT22;27754;45.414;11.084;2023-01-23T08:18:33;6.60;87.20
42097;DHT22;27754;45.414;11.084;2023-01-23T08:21:01;6.70;87.40
42097;DHT22;27754;45.414;11.084;2023-01-23T08:23:31;6.70;87.30
42097;DHT22;27754;45.414;11.084;2023-01-23T08:26:00;6.90;87.20
42097;DHT22;27754;45.414;11.084;2023-01-23T08:28:27;7.00;87.20
42097;DHT22;27754;45.414;11.084;2023-01-23T08:30:54;7.00;87.10
42097;DHT22;27754;45.414;11.084;2023-01-23T08:33:21;7.10;87.50
42097;DHT22;27754;45.414;11.084;2023-01-23T08:35:53;7.10;87.70
42097;DHT22;27754;45.414;11.084;2023-01-23T08:38:20;7.20;87.60
42097;DHT22;27754;45.414;11.084;2023-01-23T08:40:49;7.20;87.50
42097;DHT22;27754;45.414;11.084;2023-01-23T08:43:17;7.20;87.80
42097;DHT22;27754;45.414;11.084;2023-01-23T08:45:49;7.10;88.30
42097;DHT22;27754;45.414;11.084;2023-01-23T08:48:17;7.30;88.20
42097;DHT22;27754;45.414;11.084;2023-01-23T08:50:45;7.20;88.30
42097;DHT22;27754;45.414;11.084;2023-01-23T08:53:12;7.30;88.20
42097;DHT22;27754;45.414;11.084;2023-01-23T08:55:39;7.20;88.20
42097;DHT22;27754;45.414;11.084;2023-01-23T08:58:08;7.20;87.80
42097;DHT22;27754;45.414;11.084;2023-01-23T09:00:35;7.20;88.00
42097;DHT22;27754;45.414;11.084;2023-01-23T09:03:02;7.30;88.50
42097;DHT22;27754;45.414;11.084;2023-01-23T09:05:30;7.20;88.40
42097;DHT22;27754;45.414;11.084;2023-01-23T09:07:57;7.20;88.50
42097;DHT22;27754;45.414;11.084;2023-01-23T09:10:28;7.20;88.30
42097;DHT22;27754;45.414;11.084;2023-01-23T09:12:56;7.20;88.50
42097;DHT22;27754;45.414;11.084;2023-01-23T09:15:23;7.20;88.30
42097;DHT22;27754;45.414;11.084;2023-01-23T09:17:50;7.10;88.50
42097;DHT22;27754;45.414;11.084;2023-01-23T09:20:16;7.10;88.70
42097;DHT22;27754;45.414;11.084;2023-01-23T09:22:44;7.20;88.30
42097;DHT22;27754;45.414;11.084;2023-01-23T09:25:12;7.10;88.50
42097;DHT22;27754;45.414;11.084;2023-01-23T09:27:40;7.10;88.60
42097;DHT22;27754;45.414;11.084;2023-01-23T09:30:07;7.10;88.10
42097;DHT22;27754;45.414;11.084;2023-01-23T09:32:34;7.10;87.80
42097;DHT22;27754;45.414;11.084;2023-01-23T09:35:05;7.10;87.90
42097;DHT22;27754;45.414;11.084;2023-01-23T09:37:32;7.10;88.20
42097;DHT22;27754;45.414;11.084;2023-01-23T09:40:36;7.10;87.80
42097;DHT22;27754;45.414;11.084;2023-01-23T09:43:27;7.10;87.90
42097;DHT22;27754;45.414;11.084;2023-01-23T09:46:12;7.20;88.10
42097;DHT22;27754;45.414;11.084;2023-01-23T09:48:47;7.20;87.90
42097;DHT22;27754;45.414;11.084;2023-01-23T09:54:26;7.20;88.00
42097;DHT22;27754;45.414;11.084;2023-01-23T09:57:00;7.30;86.50
42097;DHT22;27754;45.414;11.084;2023-01-23T09:59:40;7.30;86.70
42097;DHT22;27754;45.414;11.084;2023-01-23T10:02:27;7.30;87.60
42097;DHT22;27754;45.414;11.084;2023-01-23T10:04:56;7.30;86.90
42097;DHT22;27754;45.414;11.084;2023-01-23T10:11:00;7.20;87.50
42097;DHT22;27754;45.414;11.084;2023-01-23T10:16:41;7.30;87.40
42097;DHT22;27754;45.414;11.084;2023-01-23T10:19:44;7.30;87.70
42097;DHT22;27754;45.414;11.084;2023-01-23T10:25:21;7.30;86.70
42097;DHT22;27754;45.414;11.084;2023-01-23T10:27:50;7.40;87.30
42097;DHT22;27754;45.414;11.084;2023-01-23T10:32:51;7.40;86.50
42097;DHT22;27754;45.414;11.084;2023-01-23T10:35:33;7.50;87.10
42097;DHT22;27754;45.414;11.084;2023-01-23T10:40:49;7.50;86.40
42097;DHT22;27754;45.414;11.084;2023-01-23T10:43:35;7.60;85.80
42097;DHT22;27754;45.414;11.084;2023-01-23T10:46:13;7.60;85.90
42097;DHT22;27754;45.414;11.084;2023-01-23T10:48:47;7.60;86.50
42097;DHT22;27754;45.414;11.084;2023-01-23T10:54:11;7.50;86.70
42097;DHT22;27754;45.414;11.084;2023-01-23T10:57:19;7.50;86.40
42097;DHT22;27754;45.414;11.084;2023-01-23T11:00:03;7.60;85.90
42097;DHT22;27754;45.414;11.084;2023-01-23T11:02:36;7.60;85.70
42097;DHT22;27754;45.414;11.084;2023-01-23T11:05:39;7.70;85.60
42097;DHT22;27754;45.414;11.084;2023-01-23T11:08:33;7.70;85.50
42097;DHT22;27754;45.414;11.084;2023-01-23T11:11:19;7.70;85.90
42097;DHT22;27754;45.414;11.084;2023-01-23T11:13:48;7.70;85.90
42097;DHT22;27754;45.414;11.084;2023-01-23T11:16:18;7.70;85.80
42097;DHT22;27754;45.414;11.084;2023-01-23T11:18:52;7.70;85.40
42097;DHT22;27754;45.414;11.084;2023-01-23T11:21:56;7.80;85.00
42097;DHT22;27754;45.414;11.084;2023-01-23T11:24:36;7.90;84.40
42097;DHT22;27754;45.414;11.084;2023-01-23T11:27:22;7.90;84.90
42097;DHT22;27754;45.414;11.084;2023-01-23T11:33:32;7.90;84.40
42097;DHT22;27754;45.414;11.084;2023-01-23T11:38:03;7.90;84.50
42097;DHT22;27754;45.414;11.084;2023-01-23T11:40:30;7.90;85.00
42097;DHT22;27754;45.414;11.084;2023-01-23T11:42:57;7.90;84.80
42097;DHT22;27754;45.414;11.084;2023-01-23T11:48:22;7.90;84.20
42097;DHT22;27754;45.414;11.084;2023-01-23T11:59:55;8.10;83.20
42097;DHT22;27754;45.414;11.084;2023-01-23T12:02:37;8.20;83.40
42097;DHT22;27754;45.414;11.084;2023-01-23T12:08:27;8.20;83.30
42097;DHT22;27754;45.414;11.084;2023-01-23T12:11:11;8.30;82.90
42097;DHT22;27754;45.414;11.084;2023-01-23T12:13:56;8.40;82.70
42097;DHT22;27754;45.414;11.084;2023-01-23T12:22:39;8.50;82.10
42097;DHT22;27754;45.414;11.084;2023-01-23T12:25:23;8.60;80.80
42097;DHT22;27754;45.414;11.084;2023-01-23T12:28:45;8.70;81.30
42097;DHT22;27754;45.414;11.084;2023-01-23T12:42:28;8.90;79.40
42097;DHT22;27754;45.414;11.084;2023-01-23T12:48:05;9.00;79.60
42097;DHT22;27754;45.414;11.084;2023-01-23T12:53:15;9.20;78.30
42097;DHT22;27754;45.414;11.084;2023-01-23T12:55:53;9.30;78.00
42097;DHT22;27754;45.414;11.084;2023-01-23T12:58:22;9.40;77.40
42097;DHT22;27754;45.414;11.084;2023-01-23T13:03:57;9.50;77.10
42097;DHT22;27754;45.414;11.084;2023-01-23T13:12:19;9.50;77.30
42097;DHT22;27754;45.414;11.084;2023-01-23T13:14:52;9.70;76.40
42097;DHT22;27754;45.414;11.084;2023-01-23T13:18:12;9.60;78.00
42097;DHT22;27754;45.414;11.084;2023-01-23T13:20:57;9.60;78.60
42097;DHT22;27754;45.414;11.084;2023-01-23T13:23:43;9.70;76.90
42097;DHT22;27754;45.414;11.084;2023-01-23T13:28:53;9.50;78.40
42097;DHT22;27754;45.414;11.084;2023-01-23T13:33:55;9.50;77.30
42097;DHT22;27754;45.414;11.084;2023-01-23T13:36:40;9.50;78.40
42097;DHT22;27754;45.414;11.084;2023-01-23T13:39:28;9.40;78.80
42097;DHT22;27754;45.414;11.084;2023-01-23T13:45:42;9.60;77.40
42097;DHT22;27754;45.414;11.084;2023-01-23T13:51:18;9.50;77.20
42097;DHT22;27754;45.414;11.084;2023-01-23T13:53:58;9.70;75.90
42097;DHT22;27754;45.414;11.084;2023-01-23T13:56:59;9.70;76.30
42097;DHT22;27754;45.414;11.084;2023-01-23T13:59:44;9.70;76.60
42097;DHT22;27754;45.414;11.084;2023-01-23T14:02:38;9.80;75.00
42097;DHT22;27754;45.414;11.084;2023-01-23T14:05:39;9.80;75.60
42097;DHT22;27754;45.414;11.084;2023-01-23T14:08:22;9.80;76.20
42097;DHT22;27754;45.414;11.084;2023-01-23T14:11:12;9.80;76.30
42097;DHT22;27754;45.414;11.084;2023-01-23T14:13:54;9.80;76.10
42097;DHT22;27754;45.414;11.084;2023-01-23T14:16:54;9.80;75.90
42097;DHT22;27754;45.414;11.084;2023-01-23T14:19:38;9.90;75.80
42097;DHT22;27754;45.414;11.084;2023-01-23T14:22:28;9.90;75.00
42097;DHT22;27754;45.414;11.084;2023-01-23T14:24:56;9.90;75.20
42097;DHT22;27754;45.414;11.084;2023-01-23T14:27:33;10.00;74.20
42097;DHT22;27754;45.414;11.084;2023-01-23T14:30:20;10.00;73.90
42097;DHT22;27754;45.414;11.084;2023-01-23T14:32:49;10.00;74.40
42097;DHT22;27754;45.414;11.084;2023-01-23T14:37:52;9.90;75.10
42097;DHT22;27754;45.414;11.084;2023-01-23T14:40:21;9.80;75.50
42097;DHT22;27754;45.414;11.084;2023-01-23T14:42:59;9.80;74.80
42097;DHT22;27754;45.414;11.084;2023-01-23T14:45:28;9.80;74.90
42097;DHT22;27754;45.414;11.084;2023-01-23T14:47:59;9.70;75.60
42097;DHT22;27754;45.414;11.084;2023-01-23T14:50:32;9.70;75.80
42097;DHT22;27754;45.414;11.084;2023-01-23T14:53:02;9.80;74.80
42097;DHT22;27754;45.414;11.084;2023-01-23T14:55:30;9.80;73.90
42097;DHT22;27754;45.414;11.084;2023-01-23T14:57:58;9.90;73.80
42097;DHT22;27754;45.414;11.084;2023-01-23T15:00:27;9.80;74.30
42097;DHT22;27754;45.414;11.084;2023-01-23T15:02:54;9.80;73.90
42097;DHT22;27754;45.414;11.084;2023-01-23T15:05:23;9.80;74.60
42097;DHT22;27754;45.414;11.084;2023-01-23T15:13:34;9.60;76.40
42097;DHT22;27754;45.414;11.084;2023-01-23T15:16:00;9.60;76.00
42097;DHT22;27754;45.414;11.084;2023-01-23T15:18:30;9.60;75.00
42097;DHT22;27754;45.414;11.084;2023-01-23T15:21:00;9.50;75.80
42097;DHT22;27754;45.414;11.084;2023-01-23T15:23:36;9.60;75.00
42097;DHT22;27754;45.414;11.084;2023-01-23T15:29:16;9.60;74.90
42097;DHT22;27754;45.414;11.084;2023-01-23T15:31:44;9.70;74.40
42097;DHT22;27754;45.414;11.084;2023-01-23T15:36:51;9.70;74.00
42097;DHT22;27754;45.414;11.084;2023-01-23T15:44:42;9.50;74.80
42097;DHT22;27754;45.414;11.084;2023-01-23T15:47:10;9.60;74.60
42097;DHT22;27754;45.414;11.084;2023-01-23T15:49:38;9.50;74.40
42097;DHT22;27754;45.414;11.084;2023-01-23T15:52:21;9.60;74.00
42097;DHT22;27754;45.414;11.084;2023-01-23T15:54:49;9.50;74.60
42097;DHT22;27754;45.414;11.084;2023-01-23T15:57:17;9.60;73.60
42097;DHT22;27754;45.414;11.084;2023-01-23T15:59:45;9.60;73.30
42097;DHT22;27754;45.414;11.084;2023-01-23T16:02:20;9.50;74.20
42097;DHT22;27754;45.414;11.084;2023-01-23T16:04:57;9.50;74.00
42097;DHT22;27754;45.414;11.084;2023-01-23T16:07:31;9.60;72.90
42097;DHT22;27754;45.414;11.084;2023-01-23T16:12:48;9.60;73.10
42097;DHT22;27754;45.414;11.084;2023-01-23T16:15:28;9.60;73.70
42097;DHT22;27754;45.414;11.084;2023-01-23T16:17:55;9.60;73.50
42097;DHT22;27754;45.414;11.084;2023-01-23T16:20:26;9.60;73.70
42097;DHT22;27754;45.414;11.084;2023-01-23T16:22:59;9.60;73.80
42097;DHT22;27754;45.414;11.084;2023-01-23T16:25:40;9.50;73.50
42097;DHT22;27754;45.414;11.084;2023-01-23T16:30:39;9.70;72.70
42097;DHT22;27754;45.414;11.084;2023-01-23T16:33:06;9.60;73.00
42097;DHT22;27754;45.414;11.084;2023-01-23T16:35:33;9.60;72.90
42097;DHT22;27754;45.414;11.084;2023-01-23T16:38:00;9.60;72.60
42097;DHT22;27754;45.414;11.084;2023-01-23T16:40:28;9.60;73.60
42097;DHT22;27754;45.414;11.084;2023-01-23T16:42:59;9.60;73.10
42097;DHT22;27754;45.414;11.084;2023-01-23T16:45:30;9.50;73.40
42097;DHT22;27754;45.414;11.084;2023-01-23T16:47:57;9.40;74.40
42097;DHT22;27754;45.414;11.084;2023-01-23T16:50:40;9.40;75.20
42097;DHT22;27754;45.414;11.084;2023-01-23T16:53:25;9.30;75.60
42097;DHT22;27754;45.414;11.084;2023-01-23T16:55:55;9.50;73.50
42097;DHT22;27754;45.414;11.084;2023-01-23T16:58:26;9.50;73.70
42097;DHT22;27754;45.414;11.084;2023-01-23T17:01:01;9.40;73.80
42097;DHT22;27754;45.414;11.084;2023-01-23T17:03:32;9.40;73.40
42097;DHT22;27754;45.414;11.084;2023-01-23T17:06:00;9.60;72.40
42097;DHT22;27754;45.414;11.084;2023-01-23T17:08:27;9.60;72.70
42097;DHT22;27754;45.414;11.084;2023-01-23T17:11:00;9.60;72.60
42097;DHT22;27754;45.414;11.084;2023-01-23T17:13:30;9.60;72.90
42097;DHT22;27754;45.414;11.084;2023-01-23T17:16:00;9.70;72.40
42097;DHT22;27754;45.414;11.084;2023-01-23T17:18:31;9.60;72.20
42097;DHT22;27754;45.414;11.084;2023-01-23T17:20:59;9.70;72.20
42097;DHT22;27754;45.414;11.084;2023-01-23T17:23:26;9.60;72.20
42097;DHT22;27754;45.414;11.084;2023-01-23T17:25:56;9.70;72.10
42097;DHT22;27754;45.414;11.084;2023-01-23T17:28:27;9.70;73.00
42097;DHT22;27754;45.414;11.084;2023-01-23T17:30:54;9.50;74.10
42097;DHT22;27754;45.414;11.084;2023-01-23T17:33:26;9.30;76.40
42097;DHT22;27754;45.414;11.084;2023-01-23T17:35:54;9.30;75.30
42097;DHT22;27754;45.414;11.084;2023-01-23T17:38:26;9.30;76.10
42097;DHT22;27754;45.414;11.084;2023-01-23T17:40:56;9.40;74.00
42097;DHT22;27754;45.414;11.084;2023-01-23T17:43:23;9.40;74.40
42097;DHT22;27754;45.414;11.084;2023-01-23T17:45:50;9.40;74.10
42097;DHT22;27754;45.414;11.084;2023-01-23T17:48:25;9.50;73.70
42097;DHT22;27754;45.414;11.084;2023-01-23T17:50:52;9.40;74.40
42097;DHT22;27754;45.414;11.084;2023-01-23T17:53:19;9.40;74.10
42097;DHT22;27754;45.414;11.084;2023-01-23T17:55:47;9.50;72.60
42097;DHT22;27754;45.414;11.084;2023-01-23T17:58:19;9.60;72.90